createdAt,value
2017-09-20T00:00:09.409Z,7.25
2017-09-20T00:02:43.828Z,5.55
2017-09-20T00:05:18.340Z,6.03
2017-09-20T00:07:52.782Z,5.60
2017-09-20T00:10:27.280Z,7.15
2017-09-20T00:13:01.718Z,5.80
2017-09-20T00:15:36.131Z,4.85
2017-09-20T00:18:10.792Z,6.55
2017-09-20T00:20:45.213Z,6.60
2017-09-20T00:23:19.652Z,6.32
2017-09-20T00:25:54.820Z,7.07
2017-09-20T00:28:29.367Z,6.50
2017-09-20T00:31:03.821Z,6.47
2017-09-20T00:33:38.504Z,6.55
2017-09-20T00:36:12.893Z,7.68
2017-09-20T00:38:47.449Z,7.22
2017-09-20T00:41:21.947Z,8.07
2017-09-20T00:43:57.261Z,7.30
2017-09-20T00:46:31.733Z,6.85
2017-09-20T00:49:06.130Z,7.43
2017-09-20T00:51:40.864Z,7.12
2017-09-20T00:54:15.395Z,7.15
2017-09-20T00:56:49.960Z,6.55
2017-09-20T00:59:24.460Z,5.70
2017-09-20T01:01:58.996Z,7.80
2017-09-20T01:04:33.484Z,5.37
2017-09-20T01:07:07.986Z,5.93
2017-09-20T01:09:42.492Z,6.68
2017-09-20T01:12:17.147Z,5.90
2017-09-20T01:14:51.644Z,5.05
2017-09-20T01:17:26.087Z,6.87
2017-09-20T01:20:00.653Z,6.03
2017-09-20T01:22:47.057Z,5.53
2017-09-20T01:25:22.166Z,6.00
2017-09-20T01:27:56.776Z,5.65
2017-09-20T01:30:31.254Z,6.20
2017-09-20T01:33:05.836Z,5.78
2017-09-20T01:35:40.307Z,5.90
2017-09-20T01:38:14.627Z,4.85
2017-09-20T01:40:48.948Z,6.25
2017-09-20T01:43:23.859Z,5.65
2017-09-20T01:45:59.118Z,5.18
2017-09-20T01:48:33.508Z,6.10
2017-09-20T01:51:07.928Z,5.97
2017-09-20T01:53:42.604Z,5.90
2017-09-20T01:56:16.912Z,4.68
2017-09-20T01:58:51.371Z,5.05
2017-09-20T02:01:25.774Z,5.80
2017-09-20T02:04:00.872Z,6.22
2017-09-20T02:06:35.148Z,5.85
2017-09-20T02:09:09.691Z,4.90
2017-09-20T02:11:44.257Z,6.20
2017-09-20T02:14:18.597Z,5.75
2017-09-20T02:16:53.039Z,6.80
2017-09-20T02:19:27.715Z,6.80
2017-09-20T02:22:02.127Z,6.10
2017-09-20T02:24:36.459Z,5.95
2017-09-20T02:27:10.993Z,7.60
2017-09-20T02:29:46.337Z,7.25
2017-09-20T02:32:20.826Z,6.57
2017-09-20T02:34:56.708Z,6.70
2017-09-20T02:37:31.176Z,7.70
2017-09-20T02:40:05.931Z,8.23
2017-09-20T02:42:42.840Z,7.97
2017-09-20T02:45:19.559Z,7.07
2017-09-20T02:47:54.687Z,7.45
2017-09-20T02:50:29.219Z,6.68
2017-09-20T02:53:03.756Z,8.13
2017-09-20T02:55:38.366Z,6.78
2017-09-20T02:58:12.813Z,6.62
2017-09-20T03:00:47.139Z,5.35
2017-09-20T03:03:21.508Z,5.70
2017-09-20T03:05:56.171Z,6.78
2017-09-20T03:08:30.684Z,5.05
2017-09-20T03:11:05.054Z,4.85
2017-09-20T03:13:39.569Z,5.22
2017-09-20T03:16:14.747Z,4.75
2017-09-20T03:18:49.156Z,4.97
2017-09-20T03:21:23.723Z,4.05
2017-09-20T03:23:58.084Z,4.28
2017-09-20T03:26:32.511Z,3.65
2017-09-20T03:29:06.947Z,4.75
2017-09-20T03:31:43.148Z,4.32
2017-09-20T03:34:18.548Z,4.82
2017-09-20T03:36:53.020Z,5.75
2017-09-20T03:39:28.204Z,4.75
2017-09-20T03:42:02.753Z,4.85
2017-09-20T03:44:38.075Z,5.12
2017-09-20T03:47:12.416Z,4.25
2017-09-20T03:49:46.806Z,4.30
2017-09-20T03:52:21.320Z,4.30
2017-09-20T03:54:56.081Z,3.42
2017-09-20T03:57:31.213Z,2.62
2017-09-20T04:00:05.732Z,3.85
2017-09-20T04:02:40.212Z,3.22
2017-09-20T04:05:14.915Z,3.92
2017-09-20T04:07:49.438Z,3.78
2017-09-20T04:10:23.933Z,4.15
2017-09-20T04:12:58.352Z,3.75
2017-09-20T04:15:32.897Z,3.67
2017-09-20T04:18:07.385Z,4.37
2017-09-20T04:20:41.784Z,4.00
2017-09-20T04:23:16.945Z,4.45
2017-09-20T04:25:51.379Z,5.45
2017-09-20T04:28:25.868Z,5.85
2017-09-20T04:31:00.168Z,4.05
2017-09-20T04:33:34.546Z,4.40
2017-09-20T04:36:09.038Z,4.85
2017-09-20T04:38:43.392Z,4.85
2017-09-20T04:41:17.788Z,4.18
2017-09-20T04:43:52.344Z,4.62
2017-09-20T04:46:26.696Z,4.20
2017-09-20T04:49:01.980Z,4.53
2017-09-20T04:51:36.319Z,5.35
2017-09-20T04:54:10.940Z,4.95
2017-09-20T04:56:46.112Z,5.70
2017-09-20T04:59:21.212Z,5.25
2017-09-20T05:01:55.521Z,4.68
2017-09-20T05:04:30.656Z,4.62
2017-09-20T05:07:05.075Z,5.40
2017-09-20T05:09:39.445Z,6.22
2017-09-20T05:12:13.912Z,4.68
2017-09-20T05:14:48.264Z,5.90
2017-09-20T05:17:23.172Z,5.37
2017-09-20T05:19:57.815Z,4.97
2017-09-20T05:22:32.137Z,6.20
2017-09-20T05:25:07.455Z,4.45
2017-09-20T05:27:41.857Z,5.05
2017-09-20T05:30:16.159Z,6.20
2017-09-20T05:32:50.609Z,4.90
2017-09-20T05:35:25.978Z,5.12
2017-09-20T05:38:00.392Z,5.60
2017-09-20T05:40:34.821Z,5.10
2017-09-20T05:43:09.137Z,4.72
2017-09-20T05:45:43.476Z,3.90
2017-09-20T05:48:17.938Z,5.50
2017-09-20T05:50:52.333Z,5.47
2017-09-20T05:53:26.781Z,6.03
2017-09-20T05:56:01.279Z,4.90
2017-09-20T05:58:35.814Z,5.75
2017-09-20T06:01:11.160Z,5.53
2017-09-20T06:03:45.528Z,5.68
2017-09-20T06:06:22.367Z,5.75
2017-09-20T06:08:56.736Z,5.53
2017-09-20T06:11:31.101Z,6.25
2017-09-20T06:14:05.530Z,5.18
2017-09-20T06:16:39.964Z,5.78
2017-09-20T06:19:14.559Z,4.55
2017-09-20T06:21:49.043Z,5.78
2017-09-20T06:24:23.564Z,4.85
2017-09-20T06:26:58.136Z,4.55
2017-09-20T06:29:32.696Z,4.95
2017-09-20T06:32:07.209Z,4.95
2017-09-20T06:34:41.780Z,4.45
2017-09-20T06:37:17.111Z,4.97
2017-09-20T06:39:51.603Z,4.47
2017-09-20T06:42:25.939Z,4.60
2017-09-20T06:45:00.416Z,3.90
2017-09-20T06:47:35.663Z,3.95
2017-09-20T06:50:10.079Z,3.95
2017-09-20T06:52:44.568Z,3.45
2017-09-20T06:55:19.130Z,3.15
2017-09-20T06:57:53.560Z,5.18
2017-09-20T07:00:27.851Z,3.33
2017-09-20T07:03:02.341Z,3.85
2017-09-20T07:05:36.777Z,2.87
2017-09-20T07:08:11.191Z,2.83
2017-09-20T07:10:45.652Z,2.67
2017-09-20T07:13:20.990Z,3.10
2017-09-20T07:15:56.116Z,3.00
2017-09-20T07:18:30.419Z,3.55
2017-09-20T07:21:04.868Z,3.85
2017-09-20T07:23:39.264Z,3.33
2017-09-20T07:26:13.614Z,3.20
2017-09-20T07:28:48.352Z,3.10
2017-09-20T07:31:22.798Z,2.90
2017-09-20T07:33:57.548Z,2.45
2017-09-20T07:36:32.099Z,2.37
2017-09-20T07:39:06.631Z,2.95
2017-09-20T07:41:41.015Z,2.58
2017-09-20T07:44:15.411Z,1.92
2017-09-20T07:46:49.931Z,2.00
2017-09-20T07:49:24.383Z,2.05
2017-09-20T07:51:58.728Z,2.62
2017-09-20T07:54:33.227Z,1.60
2017-09-20T07:57:07.924Z,2.03
2017-09-20T07:59:42.278Z,1.80
2017-09-20T08:02:16.602Z,1.70
2017-09-20T08:04:50.997Z,1.40
2017-09-20T08:07:25.477Z,2.37
2017-09-20T08:09:59.806Z,1.75
2017-09-20T08:12:34.228Z,1.83
2017-09-20T08:15:08.688Z,1.65
2017-09-20T08:17:43.816Z,1.80
2017-09-20T08:20:18.327Z,1.70
2017-09-20T08:22:53.414Z,2.20
2017-09-20T08:25:27.844Z,1.62
2017-09-20T08:28:02.243Z,3.62
2017-09-20T08:30:36.711Z,2.20
2017-09-20T08:33:10.993Z,2.00
2017-09-20T08:35:45.483Z,1.50
2017-09-20T08:38:19.740Z,1.85
2017-09-20T08:40:54.079Z,2.25
2017-09-20T08:43:28.502Z,1.45
2017-09-20T08:46:02.891Z,1.40
2017-09-20T08:48:37.379Z,1.80
2017-09-20T08:51:11.768Z,2.22
2017-09-20T08:53:46.218Z,1.90
2017-09-20T08:56:20.734Z,1.67
2017-09-20T08:58:56.784Z,1.42
2017-09-20T09:01:31.292Z,2.20
2017-09-20T09:04:05.722Z,1.62
2017-09-20T09:06:40.096Z,1.20
2017-09-20T09:09:14.379Z,1.95
2017-09-20T09:11:49.534Z,1.30
2017-09-20T09:14:23.888Z,1.00
2017-09-20T09:16:58.478Z,1.10
2017-09-20T09:19:32.783Z,1.60
2017-09-20T09:22:08.025Z,1.27
2017-09-20T09:24:42.300Z,1.23
2017-09-20T09:27:17.527Z,1.30
2017-09-20T09:29:51.854Z,1.25
2017-09-20T09:32:26.626Z,0.98
2017-09-20T09:35:01.739Z,1.00
2017-09-20T09:37:36.064Z,1.20
2017-09-20T09:40:11.276Z,1.20
2017-09-20T09:42:45.809Z,1.90
2017-09-20T09:45:20.268Z,1.20
2017-09-20T09:47:54.611Z,1.30
2017-09-20T09:50:29.078Z,1.90
2017-09-20T09:53:03.719Z,1.20
2017-09-20T09:55:38.156Z,1.40
2017-09-20T09:58:12.617Z,1.30
2017-09-20T10:00:47.025Z,1.85
2017-09-20T10:03:21.523Z,1.52
2017-09-20T10:05:55.866Z,1.80
2017-09-20T10:08:30.201Z,1.80
2017-09-20T10:11:04.641Z,1.35
2017-09-20T10:13:39.183Z,1.20
2017-09-20T10:16:13.685Z,0.82
2017-09-20T10:18:48.220Z,1.40
2017-09-20T10:21:23.326Z,1.70
2017-09-20T10:23:57.758Z,1.15
2017-09-20T10:26:32.167Z,1.45
2017-09-20T10:29:07.343Z,1.98
2017-09-20T10:31:41.747Z,1.50
2017-09-20T10:34:16.314Z,1.40
2017-09-20T10:36:50.667Z,1.37
2017-09-20T10:39:25.836Z,1.30
2017-09-20T10:42:00.348Z,1.30
2017-09-20T10:44:34.687Z,1.70
2017-09-20T10:47:08.976Z,1.55
2017-09-20T10:49:43.315Z,1.87
2017-09-20T10:52:17.873Z,1.37
2017-09-20T10:54:52.431Z,1.85
2017-09-20T10:57:26.749Z,1.37
2017-09-20T11:00:02.137Z,1.50
2017-09-20T11:02:36.628Z,1.45
2017-09-20T11:05:10.984Z,1.90
2017-09-20T11:07:45.521Z,1.80
2017-09-20T11:10:19.854Z,1.87
2017-09-20T11:12:55.153Z,1.42
2017-09-20T11:15:29.635Z,1.73
2017-09-20T11:18:04.014Z,1.30
2017-09-20T11:20:38.505Z,1.73
2017-09-20T11:23:13.119Z,1.90
2017-09-20T11:25:47.559Z,1.92
2017-09-20T11:28:22.085Z,2.58
2017-09-20T11:30:56.716Z,2.15
2017-09-20T11:33:31.228Z,1.90
2017-09-20T11:36:05.896Z,1.48
2017-09-20T11:38:40.214Z,1.73
2017-09-20T11:41:14.630Z,2.53
2017-09-20T11:43:49.070Z,2.35
2017-09-20T11:46:23.507Z,2.40
2017-09-20T11:48:57.959Z,2.00
2017-09-20T11:51:32.323Z,2.00
2017-09-20T11:54:06.739Z,1.50
2017-09-20T11:56:41.189Z,1.60
2017-09-20T11:59:15.583Z,1.45
2017-09-20T12:01:49.910Z,1.60
2017-09-20T12:04:24.553Z,1.02
2017-09-20T12:06:59.105Z,1.52
2017-09-20T12:09:33.523Z,1.17
2017-09-20T12:12:08.800Z,0.98
2017-09-20T12:14:43.170Z,1.05
2017-09-20T12:17:17.688Z,0.85
2017-09-20T12:19:52.039Z,1.23
2017-09-20T12:22:26.460Z,1.00
2017-09-20T12:25:00.938Z,0.90
2017-09-20T12:27:35.401Z,1.23
2017-09-20T12:30:09.872Z,1.50
2017-09-20T12:32:44.967Z,1.30
2017-09-20T12:35:19.418Z,1.77
2017-09-20T12:37:53.959Z,1.10
2017-09-20T12:40:28.644Z,1.52
2017-09-20T12:43:03.181Z,1.25
2017-09-20T12:45:37.616Z,1.52
2017-09-20T12:48:12.143Z,1.42
2017-09-20T12:50:46.596Z,1.48
2017-09-20T12:53:21.839Z,1.20
2017-09-20T12:55:56.213Z,1.30
2017-09-20T12:58:30.722Z,1.15
2017-09-20T13:01:05.171Z,1.10
2017-09-20T13:03:39.693Z,1.73
2017-09-20T13:06:14.157Z,1.12
2017-09-20T13:08:49.270Z,0.90
2017-09-20T13:11:23.844Z,1.58
2017-09-20T13:13:58.324Z,1.15
2017-09-20T13:16:32.743Z,1.05
2017-09-20T13:19:07.165Z,1.00
2017-09-20T13:21:41.724Z,1.00
2017-09-20T13:24:16.207Z,1.45
2017-09-20T13:26:50.716Z,1.10
2017-09-20T13:29:25.058Z,1.15
2017-09-20T13:31:59.512Z,1.08
2017-09-20T13:34:33.876Z,1.35
2017-09-20T13:37:08.300Z,1.42
2017-09-20T13:39:42.736Z,1.95
2017-09-20T13:42:17.253Z,1.55
2017-09-20T13:44:52.398Z,2.50
2017-09-20T13:47:26.806Z,1.10
2017-09-20T13:50:01.365Z,1.33
2017-09-20T13:52:35.817Z,2.00
2017-09-20T13:55:10.616Z,1.08
2017-09-20T13:57:44.988Z,2.80
2017-09-20T14:00:19.456Z,1.73
2017-09-20T14:02:53.944Z,1.45
2017-09-20T14:05:28.444Z,2.28
2017-09-20T14:08:02.908Z,2.17
2017-09-20T14:10:37.673Z,1.62
2017-09-20T14:13:12.002Z,1.58
2017-09-20T14:15:46.360Z,2.20
2017-09-20T14:18:20.810Z,1.90
2017-09-20T14:20:55.211Z,2.47
2017-09-20T14:23:29.684Z,1.20
2017-09-20T14:26:04.025Z,1.20
2017-09-20T14:28:38.336Z,1.02
2017-09-20T14:31:13.879Z,1.23
2017-09-20T14:33:48.416Z,1.40
2017-09-20T14:36:23.015Z,1.10
2017-09-20T14:38:57.444Z,1.20
2017-09-20T14:41:32.300Z,1.45
2017-09-20T14:44:07.679Z,1.25
2017-09-20T14:46:42.315Z,1.60
2017-09-20T14:49:16.807Z,1.95
2017-09-20T14:51:52.158Z,1.77
2017-09-20T14:54:26.719Z,2.30
2017-09-20T14:57:01.192Z,2.37
2017-09-20T14:59:35.645Z,2.83
2017-09-20T15:02:10.333Z,3.05
2017-09-20T15:04:45.547Z,2.50
2017-09-20T15:07:20.094Z,2.78
2017-09-20T15:09:54.407Z,2.60
2017-09-20T15:12:28.844Z,2.47
2017-09-20T15:15:04.983Z,3.05
2017-09-20T15:17:39.532Z,4.05
2017-09-20T15:20:14.103Z,3.50
2017-09-20T15:22:48.643Z,3.37
2017-09-20T15:25:22.937Z,3.40
2017-09-20T15:27:57.284Z,3.45
2017-09-20T15:30:32.484Z,2.92
2017-09-20T15:33:09.332Z,4.07
2017-09-20T15:35:43.790Z,3.80
2017-09-20T15:38:19.104Z,3.35
2017-09-20T15:40:53.449Z,3.87
2017-09-20T15:43:27.814Z,3.10
2017-09-20T15:46:02.991Z,3.50
2017-09-20T15:48:37.475Z,3.97
2017-09-20T15:51:12.656Z,5.07
2017-09-20T15:53:47.295Z,4.75
2017-09-20T15:56:21.801Z,5.03
2017-09-20T15:58:56.205Z,5.50
2017-09-20T16:01:30.635Z,5.12
2017-09-20T16:04:05.079Z,6.10
2017-09-20T16:06:39.388Z,6.20
2017-09-20T16:09:14.615Z,6.07
2017-09-20T16:11:49.111Z,6.57
2017-09-20T16:14:23.536Z,5.85
2017-09-20T16:16:57.964Z,6.05
2017-09-20T16:19:32.492Z,5.97
2017-09-20T16:22:07.003Z,5.57
2017-09-20T16:24:41.505Z,6.53
2017-09-20T16:27:15.972Z,6.55
2017-09-20T16:29:50.496Z,6.37
2017-09-20T16:32:24.994Z,7.45
2017-09-20T16:34:59.420Z,6.90
2017-09-20T16:37:33.831Z,6.47
2017-09-20T16:40:08.188Z,8.60
2017-09-20T16:42:42.720Z,8.38
2017-09-20T16:45:17.178Z,9.52
2017-09-20T16:47:52.236Z,9.10
2017-09-20T16:50:26.663Z,9.40
2017-09-20T16:53:01.385Z,9.52
2017-09-20T16:55:35.838Z,9.65
2017-09-20T16:58:10.326Z,9.95
2017-09-20T17:00:44.855Z,10.02
2017-09-20T17:03:19.332Z,9.95
2017-09-20T17:05:54.278Z,7.75
2017-09-20T17:08:28.559Z,8.82
2017-09-20T17:11:02.914Z,10.15
2017-09-20T17:13:37.404Z,8.75
2017-09-20T17:16:11.789Z,10.00
2017-09-20T17:18:46.383Z,10.35
2017-09-20T17:21:20.938Z,11.77
2017-09-20T17:23:56.059Z,9.55
2017-09-20T17:26:30.927Z,11.02
2017-09-20T17:29:06.131Z,10.32
2017-09-20T17:31:40.652Z,9.55
2017-09-20T17:34:15.044Z,9.52
2017-09-20T17:36:49.555Z,10.48
2017-09-20T17:39:24.081Z,9.27
2017-09-20T17:41:58.654Z,9.35
2017-09-20T17:44:33.867Z,9.73
2017-09-20T17:47:08.635Z,9.77
2017-09-20T17:49:43.834Z,12.15
2017-09-20T17:52:18.175Z,8.60
2017-09-20T17:54:52.686Z,9.68
2017-09-20T17:57:27.331Z,10.30
2017-09-20T18:00:01.777Z,8.77
2017-09-20T18:02:36.407Z,11.80
2017-09-20T18:05:11.041Z,10.05
2017-09-20T18:07:46.295Z,9.52
2017-09-20T18:10:20.808Z,9.85
2017-09-20T18:12:55.300Z,10.23
2017-09-20T18:15:29.832Z,10.07
2017-09-20T18:18:04.297Z,8.18
2017-09-20T18:20:38.679Z,9.13
2017-09-20T18:23:13.264Z,8.07
2017-09-20T18:25:47.769Z,6.75
2017-09-20T18:28:22.175Z,7.57
2017-09-20T18:30:56.708Z,7.70
2017-09-20T18:33:31.184Z,6.78
2017-09-20T18:36:05.624Z,6.47
2017-09-20T18:38:40.244Z,6.62
2017-09-20T18:41:15.665Z,5.85
2017-09-20T18:43:51.321Z,7.37
2017-09-20T18:46:25.864Z,7.18
2017-09-20T18:49:00.196Z,6.47
2017-09-20T18:51:36.093Z,6.03
2017-09-20T18:54:11.579Z,6.05
2017-09-20T18:56:46.047Z,6.80
2017-09-20T18:59:21.999Z,6.72
2017-09-20T19:01:57.324Z,4.90
2017-09-20T19:04:32.405Z,5.68
2017-09-20T19:07:07.528Z,5.93
2017-09-20T19:09:41.984Z,5.75
2017-09-20T19:12:17.651Z,5.90
2017-09-20T19:14:53.630Z,5.80
2017-09-20T19:17:28.218Z,6.15
2017-09-20T19:20:04.708Z,5.75
2017-09-20T19:22:41.608Z,5.55
2017-09-20T19:25:17.000Z,5.15
2017-09-20T19:27:51.533Z,4.85
2017-09-20T19:30:26.276Z,5.20
2017-09-20T19:33:00.832Z,5.32
2017-09-20T19:35:36.672Z,5.60
2017-09-20T19:38:11.212Z,4.90
2017-09-20T19:40:46.360Z,5.28
2017-09-20T19:43:21.083Z,4.60
2017-09-20T19:45:55.696Z,4.82
2017-09-20T19:48:30.045Z,5.35
2017-09-20T19:51:05.486Z,5.25
2017-09-20T19:53:45.209Z,5.40
2017-09-20T19:56:19.830Z,5.55
2017-09-20T19:58:55.265Z,4.90
2017-09-20T20:01:31.021Z,6.15
2017-09-20T20:04:05.600Z,6.32
2017-09-20T20:06:40.281Z,6.30
2017-09-20T20:09:14.967Z,6.15
2017-09-20T20:11:50.220Z,7.35
2017-09-20T20:14:24.939Z,7.10
2017-09-20T20:20:12.908Z,7.85
2017-09-20T20:22:48.141Z,7.95
2017-09-20T20:25:22.633Z,8.32
2017-09-20T20:27:57.688Z,9.35
2017-09-20T20:30:32.187Z,8.73
2017-09-20T20:33:06.925Z,8.18
2017-09-20T20:35:41.301Z,8.45
2017-09-20T20:38:20.018Z,9.57
2017-09-20T20:40:54.471Z,9.15
2017-09-20T20:43:28.829Z,10.45
2017-09-20T20:46:03.944Z,10.93
2017-09-20T20:48:38.412Z,10.43
2017-09-20T20:51:12.730Z,11.35
2017-09-20T20:53:48.176Z,10.07
2017-09-20T20:56:22.612Z,11.18
2017-09-20T20:58:58.024Z,10.63
2017-09-20T21:01:32.595Z,10.88
2017-09-20T21:04:07.900Z,10.23
2017-09-20T21:06:42.272Z,11.35
2017-09-20T21:09:16.639Z,12.82
2017-09-20T21:11:51.873Z,13.50
2017-09-20T21:14:26.255Z,11.60
2017-09-20T21:17:00.941Z,12.85
2017-09-20T21:19:35.517Z,13.48
2017-09-20T21:22:13.151Z,12.15
2017-09-20T21:24:47.584Z,13.90
2017-09-20T21:27:22.024Z,14.45
2017-09-20T21:29:56.399Z,15.45
2017-09-20T21:32:31.052Z,16.15
2017-09-20T21:35:05.495Z,17.45
2017-09-20T21:37:40.924Z,18.70
2017-09-20T21:40:15.415Z,19.15
2017-09-20T21:42:49.840Z,18.12
2017-09-20T21:45:25.081Z,18.08
2017-09-20T21:47:59.439Z,21.60
2017-09-20T21:50:34.544Z,21.15
2017-09-20T21:53:08.855Z,20.27
2017-09-20T21:55:43.362Z,21.02
2017-09-20T21:58:18.027Z,21.35
2017-09-20T22:00:52.544Z,22.30
2017-09-20T22:03:26.961Z,22.92
2017-09-20T22:06:02.168Z,23.95
2017-09-20T22:08:36.659Z,24.12
2017-09-20T22:11:11.115Z,25.27
2017-09-20T22:13:45.600Z,25.70
2017-09-20T22:16:33.024Z,26.30
2017-09-20T22:19:26.358Z,25.40
2017-09-20T22:22:18.865Z,25.05
2017-09-20T22:25:12.599Z,27.30
2017-09-20T22:27:53.248Z,25.58
2017-09-20T22:30:27.856Z,26.10
2017-09-20T22:33:02.227Z,27.20
2017-09-20T22:35:36.596Z,25.17
2017-09-20T22:38:11.098Z,26.00
2017-09-20T22:40:46.335Z,27.50
2017-09-20T22:43:20.775Z,25.65
2017-09-20T22:45:55.292Z,25.90
2017-09-20T22:48:30.390Z,25.27
2017-09-20T22:51:04.924Z,26.83
2017-09-20T22:53:39.340Z,27.40
2017-09-20T22:56:14.703Z,25.73
2017-09-20T22:58:49.265Z,26.85
2017-09-20T23:01:23.775Z,26.95
2017-09-20T23:03:58.104Z,26.58
2017-09-20T23:06:32.680Z,24.87
2017-09-20T23:09:07.121Z,26.92
2017-09-20T23:11:42.823Z,26.00
2017-09-20T23:14:17.423Z,23.87
2017-09-20T23:16:52.124Z,24.90
2017-09-20T23:19:26.448Z,26.52
2017-09-20T23:22:00.918Z,25.85
2017-09-20T23:24:35.249Z,25.35
2017-09-20T23:27:09.605Z,26.20
2017-09-20T23:29:44.068Z,26.35
2017-09-20T23:32:18.648Z,24.65
2017-09-20T23:34:52.995Z,24.75
2017-09-20T23:37:27.577Z,25.52
2017-09-20T23:40:02.041Z,26.50
2017-09-20T23:42:36.554Z,27.70
2017-09-20T23:45:10.947Z,27.30
2017-09-20T23:47:45.420Z,26.58
2017-09-20T23:50:19.853Z,29.00
2017-09-20T23:52:54.348Z,25.10
2017-09-20T23:55:28.972Z,24.60
2017-09-20T23:58:03.400Z,26.25
